Time;durP1;ratioP1;P1;durP2;ratioP2;P2;SDS_P1;SDS_P2;PMS_P1;PMS_P2;Temp;Humidity;BMP_temperature;BMP_pressure;BME280_temperature;BME280_humidity;BME280_pressure;Samples;Min_cycle;Max_cycle;Signal;HPM_P1;HPM_P2
2021/05/29 00:00:50;;;;;;;7.70;5.83;;;13.30;99.90;;;;;;5061990;28;20466;-50
2021/05/29 00:03:17;;;;;;;9.17;5.60;;;13.30;99.90;;;;;;5066713;28;20466;-50
2021/05/29 00:05:44;;;;;;;7.10;5.87;;;13.40;99.90;;;;;;5061677;28;20467;-50
2021/05/29 00:08:11;;;;;;;11.53;6.70;;;13.30;99.90;;;;;;5058152;28;20550;-50
2021/05/29 00:10:40;;;;;;;8.07;6.17;;;13.20;99.90;;;;;;5060574;28;20518;-50
2021/05/29 00:13:07;;;;;;;7.53;5.70;;;13.20;99.90;;;;;;5060542;28;20443;-50
2021/05/29 00:15:35;;;;;;;10.57;6.37;;;13.10;99.90;;;;;;5069125;28;20446;-50
2021/05/29 00:18:01;;;;;;;7.33;5.67;;;13.10;99.90;;;;;;5064774;28;20487;-50
2021/05/29 00:20:29;;;;;;;6.80;5.80;;;13.20;99.90;;;;;;5062686;28;20516;-50
2021/05/29 00:22:56;;;;;;;6.63;5.10;;;13.20;99.90;;;;;;5061999;28;20455;-50
2021/05/29 00:25:22;;;;;;;8.47;5.00;;;13.10;99.90;;;;;;5059529;28;20467;-50
2021/05/29 00:27:49;;;;;;;7.97;5.53;;;13.20;99.90;;;;;;5063552;28;20510;-50
2021/05/29 00:30:16;;;;;;;6.23;4.33;;;13.30;99.90;;;;;;5060011;28;20521;-50
2021/05/29 00:32:43;;;;;;;5.60;4.43;;;13.40;99.90;;;;;;5057689;28;20463;-50
2021/05/29 00:35:11;;;;;;;6.77;5.50;;;13.50;99.90;;;;;;5060834;28;20460;-50
2021/05/29 00:37:38;;;;;;;5.30;4.67;;;13.60;99.90;;;;;;5060700;28;20494;-50
2021/05/29 00:40:07;;;;;;;5.07;4.57;;;13.60;99.90;;;;;;5060260;28;20460;-50
2021/05/29 00:42:34;;;;;;;7.10;5.20;;;13.60;99.90;;;;;;5061653;28;20459;-50
2021/05/29 00:45:00;;;;;;;6.27;5.03;;;13.70;99.90;;;;;;5058798;28;20836;-50
2021/05/29 00:47:28;;;;;;;6.30;4.20;;;13.70;99.90;;;;;;5062125;28;20482;-50
2021/05/29 00:49:58;;;;;;;7.70;5.57;;;13.70;99.90;;;;;;5061777;28;20969;-50
2021/05/29 00:52:25;;;;;;;8.60;5.20;;;13.70;99.90;;;;;;5059107;28;20459;-50
2021/05/29 00:54:54;;;;;;;6.90;5.30;;;13.70;99.90;;;;;;5071766;28;20488;-50
2021/05/29 00:57:22;;;;;;;7.73;5.63;;;13.70;99.90;;;;;;5061851;28;20643;-50
2021/05/29 00:59:49;;;;;;;9.10;6.40;;;13.60;99.90;;;;;;5057435;28;20467;-50
2021/05/29 01:02:17;;;;;;;7.80;6.03;;;13.60;99.90;;;;;;5059634;28;20520;-50
2021/05/29 01:04:45;;;;;;;6.80;5.30;;;13.50;99.90;;;;;;5057509;28;20463;-50
2021/05/29 01:07:14;;;;;;;8.67;5.60;;;13.60;99.90;;;;;;5060190;28;20475;-50
2021/05/29 01:09:43;;;;;;;9.40;5.87;;;13.60;99.90;;;;;;5056968;28;20478;-50
2021/05/29 01:12:13;;;;;;;6.90;5.13;;;13.50;99.90;;;;;;5067164;28;20834;-50
2021/05/29 01:14:46;;;;;;;7.60;5.33;;;13.60;99.90;;;;;;5064533;28;20464;-50
2021/05/29 01:17:13;;;;;;;8.60;5.67;;;13.60;99.90;;;;;;5060876;28;21073;-50
2021/05/29 01:19:39;;;;;;;8.73;5.60;;;13.40;99.90;;;;;;5060785;28;20476;-50
2021/05/29 01:22:08;;;;;;;5.97;5.13;;;13.20;99.90;;;;;;5065367;28;20468;-50
2021/05/29 01:24:36;;;;;;;6.10;4.80;;;13.20;99.90;;;;;;5059849;28;20475;-50
2021/05/29 01:27:04;;;;;;;7.73;5.20;;;13.30;99.90;;;;;;5062681;28;20490;-50
2021/05/29 01:29:31;;;;;;;7.90;6.07;;;13.40;99.90;;;;;;5061106;28;20464;-50
2021/05/29 01:32:02;;;;;;;5.50;4.80;;;13.20;99.90;;;;;;5061643;28;20830;-51
2021/05/29 01:34:32;;;;;;;7.43;5.70;;;13.20;99.90;;;;;;5059046;28;21227;-50
2021/05/29 01:37:00;;;;;;;9.50;5.97;;;13.00;99.90;;;;;;5065442;28;20552;-50
2021/05/29 01:39:28;;;;;;;7.13;4.90;;;12.90;99.90;;;;;;5081042;22;20596;-49
2021/05/29 01:41:55;;;;;;;7.33;5.97;;;12.80;99.90;;;;;;5056114;28;20443;-49
2021/05/29 01:44:23;;;;;;;7.53;6.00;;;12.60;99.90;;;;;;5062453;28;20462;-48
2021/05/29 01:46:50;;;;;;;9.10;6.67;;;12.50;99.90;;;;;;5058292;28;20542;-49
2021/05/29 01:49:18;;;;;;;7.80;6.40;;;12.30;99.90;;;;;;5063683;28;21075;-49
2021/05/29 01:51:44;;;;;;;11.63;6.63;;;12.30;99.90;;;;;;5059950;28;20489;-49
2021/05/29 01:54:14;;;;;;;9.50;7.07;;;12.20;99.90;;;;;;5064940;28;20893;-49
2021/05/29 01:56:42;;;;;;;7.10;5.97;;;12.20;99.90;;;;;;5069617;28;20489;-49
2021/05/29 01:59:09;;;;;;;6.90;4.97;;;12.30;99.90;;;;;;5066386;28;20484;-49
2021/05/29 02:01:36;;;;;;;6.43;5.73;;;12.50;99.90;;;;;;5069152;28;20482;-48
2021/05/29 02:04:03;;;;;;;9.20;6.13;;;12.80;99.90;;;;;;5061492;28;20459;-49
2021/05/29 02:06:30;;;;;;;7.30;5.93;;;12.60;99.90;;;;;;5062278;28;20463;-49
2021/05/29 02:08:56;;;;;;;8.67;5.70;;;12.50;99.90;;;;;;5063746;28;20483;-49
2021/05/29 02:11:23;;;;;;;9.33;5.93;;;12.50;99.90;;;;;;5073624;28;20472;-49
2021/05/29 02:13:50;;;;;;;8.63;5.60;;;12.60;99.90;;;;;;5073138;28;20508;-49
2021/05/29 02:16:17;;;;;;;9.60;6.30;;;12.50;99.90;;;;;;5066518;28;20466;-49
2021/05/29 02:18:43;;;;;;;9.10;5.97;;;12.30;99.90;;;;;;5071399;28;20495;-49
2021/05/29 02:21:12;;;;;;;8.10;6.10;;;12.30;99.90;;;;;;5074095;28;20485;-49
2021/05/29 02:23:41;;;;;;;6.60;5.90;;;12.20;99.90;;;;;;5071835;28;20466;-49
2021/05/29 02:26:11;;;;;;;9.97;6.13;;;12.10;99.90;;;;;;5068256;28;20454;-49
2021/05/29 02:28:41;;;;;;;7.70;6.00;;;12.20;99.90;;;;;;5072474;28;20514;-49
2021/05/29 02:31:10;;;;;;;5.83;5.03;;;12.30;99.90;;;;;;5062483;28;20459;-49
2021/05/29 02:33:37;;;;;;;7.80;5.23;;;12.40;99.90;;;;;;5069254;28;20512;-48
2021/05/29 02:36:05;;;;;;;8.70;5.80;;;12.60;99.90;;;;;;5066824;28;20516;-48
2021/05/29 02:38:33;;;;;;;8.73;6.03;;;12.60;99.90;;;;;;5069909;28;20874;-49
2021/05/29 02:41:00;;;;;;;7.80;5.93;;;12.70;99.90;;;;;;5067077;28;21005;-49
2021/05/29 02:43:27;;;;;;;8.20;6.60;;;12.70;99.90;;;;;;5067168;28;20972;-49
2021/05/29 02:45:54;;;;;;;11.90;5.90;;;12.60;99.90;;;;;;5065318;28;20822;-49
2021/05/29 02:48:22;;;;;;;8.00;5.80;;;12.30;99.90;;;;;;5072779;28;20474;-49
2021/05/29 02:50:48;;;;;;;8.70;5.50;;;12.40;99.90;;;;;;5065804;28;20470;-49
2021/05/29 02:53:16;;;;;;;7.60;5.67;;;12.40;99.90;;;;;;5072920;28;20470;-48
2021/05/29 02:55:43;;;;;;;7.97;6.07;;;12.20;99.90;;;;;;5064190;28;20452;-48
2021/05/29 02:58:10;;;;;;;8.20;6.20;;;11.90;99.90;;;;;;5071386;28;20522;-49
2021/05/29 03:00:39;;;;;;;8.77;6.00;;;11.80;99.90;;;;;;5070540;28;20458;-49
2021/05/29 03:03:07;;;;;;;7.57;6.10;;;11.80;99.90;;;;;;5070700;28;20466;-48
2021/05/29 03:05:36;;;;;;;9.30;6.60;;;11.90;99.90;;;;;;5060559;28;20492;-48
2021/05/29 03:08:04;;;;;;;7.33;6.10;;;11.90;99.90;;;;;;5067894;28;20477;-49
2021/05/29 03:10:31;;;;;;;9.13;6.40;;;12.00;99.90;;;;;;5071282;28;20462;-49
2021/05/29 03:12:58;;;;;;;8.20;5.93;;;12.00;99.90;;;;;;5067347;28;20974;-48
2021/05/29 03:15:26;;;;;;;9.70;6.00;;;12.10;99.90;;;;;;5072008;28;20459;-48
2021/05/29 03:17:53;;;;;;;7.80;6.27;;;12.20;99.90;;;;;;5069316;28;20487;-49
2021/05/29 03:20:22;;;;;;;8.53;6.37;;;12.30;99.90;;;;;;5070329;28;20470;-49
2021/05/29 03:22:49;;;;;;;7.40;5.70;;;12.30;99.90;;;;;;5071451;28;20459;-49
2021/05/29 03:25:16;;;;;;;8.80;6.30;;;12.30;99.90;;;;;;5071103;28;20871;-49
2021/05/29 03:27:43;;;;;;;8.57;6.10;;;12.30;99.90;;;;;;5064505;28;20483;-49
2021/05/29 03:30:12;;;;;;;9.77;7.40;;;12.20;99.90;;;;;;5071370;28;20459;-49
2021/05/29 03:32:39;;;;;;;7.50;6.13;;;12.10;99.90;;;;;;5065519;28;20459;-49
2021/05/29 03:35:08;;;;;;;7.13;5.37;;;12.20;99.90;;;;;;5063019;28;20464;-48
2021/05/29 03:37:34;;;;;;;7.37;5.77;;;12.30;99.90;;;;;;5063248;28;20485;-49
2021/05/29 03:40:03;;;;;;;6.63;5.53;;;12.20;99.90;;;;;;5071115;28;20466;-49
2021/05/29 03:42:29;;;;;;;8.57;6.13;;;12.30;99.90;;;;;;5066716;28;20558;-48
2021/05/29 03:44:56;;;;;;;10.90;6.53;;;12.40;99.90;;;;;;5069579;28;20570;-49
2021/05/29 03:47:22;;;;;;;9.93;7.13;;;12.30;99.90;;;;;;5062547;28;20600;-47
2021/05/29 03:49:49;;;;;;;8.43;6.57;;;12.30;99.90;;;;;;5065220;28;20458;-49
2021/05/29 03:52:16;;;;;;;11.00;6.33;;;12.30;99.90;;;;;;5062841;28;20459;-49
2021/05/29 03:54:42;;;;;;;10.73;6.97;;;12.50;99.90;;;;;;5061689;28;20463;-49
2021/05/29 03:57:10;;;;;;;10.00;6.43;;;12.40;99.90;;;;;;5064851;28;20478;-48
2021/05/29 03:59:36;;;;;;;10.00;6.13;;;12.30;99.90;;;;;;5062312;28;20475;-48
2021/05/29 04:02:03;;;;;;;10.70;6.47;;;12.30;99.90;;;;;;5063032;28;20467;-49
2021/05/29 04:04:30;;;;;;;8.60;6.50;;;12.20;99.90;;;;;;5062448;28;20490;-49
2021/05/29 04:06:58;;;;;;;10.57;6.90;;;12.10;99.90;;;;;;5063688;28;20455;-49
2021/05/29 04:09:26;;;;;;;9.80;5.83;;;12.00;99.90;;;;;;5064135;28;20596;-48
2021/05/29 04:11:52;;;;;;;12.70;7.10;;;12.10;99.90;;;;;;5065943;28;20503;-49
2021/05/29 04:14:20;;;;;;;9.70;6.50;;;12.20;99.90;;;;;;5063760;28;20467;-48
2021/05/29 04:16:47;;;;;;;9.27;6.47;;;12.20;99.90;;;;;;5064096;28;20471;-49
2021/05/29 04:19:13;;;;;;;10.97;6.97;;;12.30;99.90;;;;;;5062117;28;20484;-49
2021/05/29 04:21:40;;;;;;;8.60;6.23;;;12.30;99.90;;;;;;5061713;28;21379;-48
2021/05/29 04:24:08;;;;;;;10.53;6.10;;;12.20;99.90;;;;;;5065802;28;20465;-48
2021/05/29 04:26:35;;;;;;;8.50;5.93;;;12.10;99.90;;;;;;5062670;28;20484;-48
2021/05/29 04:29:01;;;;;;;8.70;6.00;;;12.00;99.90;;;;;;5062287;28;20490;-48
2021/05/29 04:31:29;;;;;;;8.70;6.27;;;12.00;99.90;;;;;;5063271;28;20473;-48
2021/05/29 04:33:55;;;;;;;8.23;6.13;;;12.00;99.90;;;;;;5061839;28;20462;-49
2021/05/29 04:36:22;;;;;;;9.60;6.30;;;11.90;99.90;;;;;;5061243;28;20462;-48
2021/05/29 04:38:49;;;;;;;7.90;6.10;;;11.80;99.90;;;;;;5061665;28;20491;-48
2021/05/29 04:41:16;;;;;;;8.80;6.40;;;12.00;99.90;;;;;;5063269;28;20489;-49
2021/05/29 04:43:42;;;;;;;11.50;6.43;;;12.10;99.90;;;;;;5061651;28;20837;-48
2021/05/29 04:46:09;;;;;;;8.80;6.57;;;12.00;99.90;;;;;;5059809;28;20466;-48
2021/05/29 04:48:36;;;;;;;9.57;6.30;;;12.10;99.90;;;;;;5063381;28;20490;-48
2021/05/29 04:53:50;;;;;;;9.23;6.50;;;12.10;99.90;;;;;;5062574;28;20905;-48
2021/05/29 04:56:17;;;;;;;10.90;7.57;;;12.00;99.90;;;;;;5059739;28;20990;-49
2021/05/29 04:58:46;;;;;;;8.87;6.53;;;11.80;99.90;;;;;;5061832;28;20498;-48
2021/05/29 05:01:13;;;;;;;11.13;7.13;;;12.00;99.90;;;;;;5064130;28;20454;-49
2021/05/29 05:03:43;;;;;;;9.40;6.83;;;12.10;99.90;;;;;;5061854;28;20474;-48
2021/05/29 05:06:11;;;;;;;8.93;6.30;;;12.10;99.90;;;;;;5061281;28;20458;-49
2021/05/29 05:08:37;;;;;;;10.13;6.50;;;12.10;99.90;;;;;;5060568;28;20507;-49
2021/05/29 05:11:04;;;;;;;7.90;6.23;;;12.30;99.90;;;;;;5062430;28;20455;-47
2021/05/29 05:13:31;;;;;;;8.20;6.53;;;12.40;99.90;;;;;;5060891;28;20463;-48
2021/05/29 05:15:57;;;;;;;8.63;6.23;;;12.80;99.90;;;;;;5062001;28;22259;-49
2021/05/29 05:18:24;;;;;;;8.47;6.23;;;13.00;99.90;;;;;;5061685;28;20491;-48
2021/05/29 05:20:55;;;;;;;8.00;6.07;;;13.00;99.90;;;;;;5062686;28;20463;-48
2021/05/29 05:23:22;;;;;;;11.00;6.57;;;13.20;99.90;;;;;;5062596;28;21011;-49
2021/05/29 05:25:49;;;;;;;8.17;6.30;;;13.60;99.90;;;;;;5060337;28;20979;-48
2021/05/29 05:28:15;;;;;;;7.97;5.80;;;14.00;99.90;;;;;;5061521;28;20537;-48
2021/05/29 05:30:43;;;;;;;8.43;6.40;;;14.20;99.90;;;;;;5061710;28;20466;-48
2021/05/29 05:33:10;;;;;;;10.70;5.87;;;14.30;99.90;;;;;;5059956;28;20463;-49
2021/05/29 05:35:38;;;;;;;10.20;7.00;;;14.50;99.90;;;;;;5059429;28;20470;-48
2021/05/29 05:38:05;;;;;;;8.23;5.97;;;14.50;99.90;;;;;;5060592;28;20979;-49
2021/05/29 05:40:32;;;;;;;6.40;5.60;;;14.50;99.90;;;;;;5061500;28;20458;-49
2021/05/29 05:42:59;;;;;;;8.50;5.97;;;14.50;99.90;;;;;;5059683;28;20474;-49
2021/05/29 05:45:25;;;;;;;7.70;5.90;;;14.60;99.90;;;;;;5064684;28;20463;-48
2021/05/29 05:47:52;;;;;;;7.40;5.60;;;14.80;99.90;;;;;;5065417;28;20474;-49
2021/05/29 05:50:18;;;;;;;8.27;5.37;;;14.90;99.90;;;;;;5069101;28;20460;-49
2021/05/29 05:52:45;;;;;;;6.77;5.70;;;14.90;99.90;;;;;;5064957;28;20473;-49
2021/05/29 05:55:13;;;;;;;6.20;5.53;;;14.60;99.90;;;;;;5065835;28;22135;-49
2021/05/29 05:57:39;;;;;;;7.27;5.77;;;14.60;99.90;;;;;;5065562;28;20493;-49
2021/05/29 06:00:08;;;;;;;9.17;6.73;;;14.20;99.90;;;;;;5065964;28;20516;-48
2021/05/29 06:02:35;;;;;;;13.90;6.70;;;13.70;99.90;;;;;;5064901;28;20952;-48
2021/05/29 06:05:02;;;;;;;7.60;6.30;;;13.30;99.90;;;;;;5065434;28;20536;-49
2021/05/29 06:07:28;;;;;;;8.80;6.20;;;13.40;99.90;;;;;;5063535;28;20463;-48
2021/05/29 06:09:55;;;;;;;7.90;6.67;;;13.20;99.90;;;;;;5065313;28;20463;-49
2021/05/29 06:12:22;;;;;;;8.07;6.23;;;13.10;99.90;;;;;;5066108;28;20523;-49
2021/05/29 06:20:26;;;;;;;6.77;6.07;;;13.30;99.90;;;;;;5038194;28;20465;-49
2021/05/29 06:22:52;;;;;;;11.20;6.47;;;13.50;99.90;;;;;;5064715;28;20459;-49
2021/05/29 06:25:19;;;;;;;8.90;6.47;;;13.50;99.90;;;;;;5065847;28;20463;-49
2021/05/29 06:27:47;;;;;;;8.93;6.27;;;13.50;99.90;;;;;;5066088;28;20483;-48
2021/05/29 06:30:14;;;;;;;8.50;6.07;;;13.70;99.90;;;;;;5066172;28;20963;-49
2021/05/29 06:32:41;;;;;;;7.87;6.10;;;13.80;99.90;;;;;;5064688;28;20466;-48
2021/05/29 06:35:09;;;;;;;7.70;5.57;;;13.80;99.90;;;;;;5064758;28;20480;-49
2021/05/29 06:37:36;;;;;;;9.50;6.57;;;13.70;99.90;;;;;;5062790;28;20539;-49
2021/05/29 06:40:05;;;;;;;9.60;6.83;;;13.80;99.90;;;;;;5066805;28;20463;-48
2021/05/29 06:42:31;;;;;;;10.20;6.50;;;13.70;99.90;;;;;;5065114;28;20473;-49
2021/05/29 06:44:59;;;;;;;9.70;6.03;;;13.70;99.90;;;;;;5065950;28;21017;-48
2021/05/29 06:47:25;;;;;;;11.70;6.00;;;13.60;99.90;;;;;;5065194;28;20967;-49
2021/05/29 06:49:52;;;;;;;7.10;5.83;;;13.70;99.90;;;;;;5066072;28;21409;-49
2021/05/29 06:52:21;;;;;;;9.80;6.20;;;13.80;99.90;;;;;;5064771;28;20466;-49
2021/05/29 06:54:54;;;;;;;9.97;6.47;;;13.80;99.90;;;;;;5062519;28;20566;-48
2021/05/29 07:00:09;;;;;;;8.93;6.63;;;13.90;99.90;;;;;;5063630;28;20502;-49
2021/05/29 07:02:36;;;;;;;7.73;6.30;;;14.10;99.90;;;;;;5063056;28;20470;-49
2021/05/29 07:05:04;;;;;;;9.70;7.00;;;14.30;99.90;;;;;;5064645;28;20524;-49
2021/05/29 07:07:31;;;;;;;9.43;6.80;;;14.20;99.90;;;;;;5062357;28;20609;-48
2021/05/29 07:09:58;;;;;;;7.90;6.20;;;14.40;99.90;;;;;;5064582;28;20512;-48
2021/05/29 07:12:24;;;;;;;8.70;6.67;;;14.40;99.90;;;;;;5062908;28;20470;-49
2021/05/29 07:14:51;;;;;;;11.50;6.80;;;14.60;99.90;;;;;;5059050;28;20471;-49
2021/05/29 07:17:19;;;;;;;8.40;6.50;;;14.70;99.90;;;;;;5067844;28;20932;-49
2021/05/29 07:19:45;;;;;;;8.80;6.37;;;14.70;99.90;;;;;;5065894;28;20486;-48
2021/05/29 07:22:12;;;;;;;7.63;5.90;;;15.10;99.90;;;;;;5067352;28;20473;-47
2021/05/29 07:24:38;;;;;;;8.60;6.60;;;15.50;99.90;;;;;;5068345;28;20885;-48
2021/05/29 07:27:05;;;;;;;8.03;6.17;;;16.10;99.90;;;;;;5066271;28;20825;-48
2021/05/29 07:29:31;;;;;;;7.70;6.70;;;16.30;99.90;;;;;;5065423;28;20483;-48
2021/05/29 07:31:58;;;;;;;9.73;7.50;;;16.60;99.90;;;;;;5065515;28;20463;-48
2021/05/29 07:34:25;;;;;;;7.93;6.27;;;16.60;99.90;;;;;;5066472;28;20469;-49
2021/05/29 07:36:51;;;;;;;10.33;7.80;;;16.20;99.90;;;;;;5067159;28;20505;-48
2021/05/29 07:39:18;;;;;;;8.57;7.00;;;15.90;99.90;;;;;;5064203;28;20487;-48
2021/05/29 07:41:44;;;;;;;8.40;6.63;;;15.90;99.90;;;;;;5066437;28;21901;-48
2021/05/29 07:44:11;;;;;;;9.63;7.53;;;16.10;99.90;;;;;;5064985;28;20455;-48
2021/05/29 07:46:37;;;;;;;9.97;6.80;;;16.20;99.90;;;;;;5065242;28;21002;-48
2021/05/29 07:49:04;;;;;;;9.53;7.20;;;16.00;99.90;;;;;;5064716;28;20524;-48
2021/05/29 07:51:35;;;;;;;10.17;6.80;;;16.00;99.90;;;;;;5068502;28;20467;-47
2021/05/29 07:54:02;;;;;;;9.73;7.13;;;15.90;99.90;;;;;;5064662;28;20489;-48
2021/05/29 07:56:28;;;;;;;9.43;7.03;;;16.10;99.90;;;;;;5088960;22;20511;-54
2021/05/29 07:58:55;;;;;;;12.87;7.00;;;16.30;99.90;;;;;;5055760;28;20484;-54
2021/05/29 08:01:21;;;;;;;8.60;6.77;;;16.40;99.90;;;;;;5058419;28;20495;-54
2021/05/29 08:03:48;;;;;;;11.30;6.60;;;16.50;99.90;;;;;;5059661;28;20461;-55
2021/05/29 08:06:16;;;;;;;11.50;7.27;;;16.30;99.90;;;;;;5056833;28;20483;-59
2021/05/29 08:08:45;;;;;;;8.93;6.80;;;16.20;99.90;;;;;;5067987;28;20460;-54
2021/05/29 08:11:17;;;;;;;10.10;6.70;;;15.70;99.90;;;;;;5056361;28;20961;-53
2021/05/29 08:13:47;;;;;;;9.77;6.90;;;15.80;99.90;;;;;;5051444;28;20470;-53
2021/05/29 08:16:14;;;;;;;7.00;6.03;;;16.10;99.90;;;;;;5050203;28;20491;-53
2021/05/29 08:18:40;;;;;;;7.50;6.13;;;16.30;99.90;;;;;;5046819;28;20480;-53
2021/05/29 08:21:07;;;;;;;7.67;5.47;;;16.00;99.90;;;;;;5048368;28;20471;-54
2021/05/29 08:23:33;;;;;;;9.37;6.27;;;16.40;99.90;;;;;;5046648;28;20464;-55
2021/05/29 08:26:01;;;;;;;8.63;6.80;;;16.70;99.90;;;;;;5043893;28;20479;-55
2021/05/29 08:28:27;;;;;;;8.53;6.17;;;16.50;99.90;;;;;;5044105;28;20456;-53
2021/05/29 08:30:54;;;;;;;9.50;5.73;;;16.60;99.90;;;;;;5043831;28;20474;-55
2021/05/29 08:33:20;;;;;;;7.50;6.13;;;16.80;99.90;;;;;;5042340;28;20459;-54
2021/05/29 08:35:47;;;;;;;8.10;5.73;;;16.90;99.90;;;;;;5044377;28;20215;-52
2021/05/29 08:38:13;;;;;;;7.70;5.70;;;17.20;99.90;;;;;;5046777;28;20484;-54
2021/05/29 08:40:40;;;;;;;8.10;5.47;;;17.30;99.90;;;;;;5044151;28;20471;-54
2021/05/29 08:43:09;;;;;;;5.93;5.20;;;17.50;99.90;;;;;;5041263;28;20464;-53
2021/05/29 08:45:36;;;;;;;8.33;5.10;;;17.30;99.90;;;;;;5044647;28;20463;-53
2021/05/29 08:48:02;;;;;;;7.53;5.60;;;17.10;99.90;;;;;;5045401;28;20842;-52
2021/05/29 08:50:29;;;;;;;8.40;6.00;;;16.50;99.90;;;;;;5045189;28;20981;-53
2021/05/29 08:52:56;;;;;;;7.80;5.77;;;16.40;99.90;;;;;;5050729;28;20452;-53
2021/05/29 08:55:23;;;;;;;8.57;5.53;;;16.40;99.90;;;;;;5041817;28;20521;-53
2021/05/29 08:57:51;;;;;;;7.13;5.20;;;16.30;99.90;;;;;;5043672;28;20492;-52
2021/05/29 09:00:20;;;;;;;6.27;5.10;;;16.30;99.90;;;;;;5042976;28;20486;-53
2021/05/29 09:03:01;;;;;;;10.47;5.90;;;16.20;99.90;;;;;;5041670;28;20463;-53
2021/05/29 09:05:37;;;;;;;6.97;5.57;;;16.00;99.90;;;;;;5043434;28;20463;-53
2021/05/29 09:08:09;;;;;;;8.60;5.80;;;16.10;99.90;;;;;;5042079;28;20447;-53
2021/05/29 09:10:39;;;;;;;6.80;5.20;;;16.20;99.90;;;;;;5041336;28;20459;-53
2021/05/29 09:13:11;;;;;;;6.00;4.90;;;16.40;99.90;;;;;;5043696;28;20838;-53
2021/05/29 09:15:54;;;;;;;7.57;5.63;;;16.30;99.90;;;;;;5041932;28;20499;-53
2021/05/29 09:18:28;;;;;;;6.93;5.10;;;16.00;99.90;;;;;;5051672;28;20479;-53
2021/05/29 09:21:26;;;;;;;8.77;5.43;;;16.10;99.90;;;;;;5042510;28;21026;-53
2021/05/29 09:23:57;;;;;;;7.50;5.07;;;15.80;99.90;;;;;;5041958;28;20549;-53
2021/05/29 09:26:40;;;;;;;7.57;5.60;;;15.60;99.90;;;;;;5040678;28;20494;-53
2021/05/29 09:29:17;;;;;;;9.23;5.73;;;15.60;99.90;;;;;;5042202;28;20472;-53
2021/05/29 09:31:57;;;;;;;6.40;4.87;;;15.90;99.90;;;;;;5041226;28;20468;-53
2021/05/29 09:34:47;;;;;;;7.90;5.07;;;16.10;99.90;;;;;;5043769;28;20915;-53
2021/05/29 09:37:15;;;;;;;8.97;5.67;;;16.40;99.90;;;;;;5038684;28;20495;-54
2021/05/29 09:39:44;;;;;;;7.23;5.43;;;16.80;99.90;;;;;;5038480;28;20463;-53
2021/05/29 09:42:12;;;;;;;6.60;5.50;;;17.10;99.90;;;;;;5050076;28;20463;-53
2021/05/29 09:44:39;;;;;;;7.23;4.83;;;17.00;99.90;;;;;;5045666;28;20475;-53
2021/05/29 09:47:10;;;;;;;6.20;5.30;;;17.00;99.90;;;;;;5043360;28;20613;-53
2021/05/29 09:49:49;;;;;;;6.37;5.30;;;17.30;99.90;;;;;;5044251;28;21006;-52
2021/05/29 09:52:27;;;;;;;6.40;5.20;;;17.50;99.90;;;;;;5042465;28;20471;-53
2021/05/29 09:54:54;;;;;;;7.50;4.43;;;17.90;99.90;;;;;;5043496;28;20860;-53
2021/05/29 09:57:21;;;;;;;7.00;4.93;;;18.40;99.90;;;;;;5050313;28;20849;-53
2021/05/29 09:59:59;;;;;;;5.20;4.70;;;19.00;99.90;;;;;;5051255;28;20440;-53
2021/05/29 10:02:26;;;;;;;6.20;5.57;;;19.10;99.90;;;;;;5046121;28;20842;-53
2021/05/29 10:04:55;;;;;;;6.20;5.13;;;18.60;99.90;;;;;;5043208;28;20436;-53
2021/05/29 10:07:23;;;;;;;7.57;5.27;;;18.70;99.90;;;;;;5050489;28;20476;-53
2021/05/29 10:09:50;;;;;;;7.20;5.03;;;18.90;99.90;;;;;;5037429;28;20456;-53
2021/05/29 10:12:17;;;;;;;8.87;5.77;;;18.90;99.90;;;;;;5043425;28;21183;-53
2021/05/29 10:14:44;;;;;;;5.97;4.90;;;18.90;99.90;;;;;;5049010;28;21038;-53
2021/05/29 10:17:12;;;;;;;6.60;5.20;;;19.10;99.90;;;;;;5048284;28;20855;-54
2021/05/29 10:19:41;;;;;;;5.13;4.60;;;19.40;99.90;;;;;;5040578;28;20464;-53
2021/05/29 10:22:10;;;;;;;6.13;4.27;;;19.70;99.90;;;;;;5045467;28;20478;-54
2021/05/29 10:24:38;;;;;;;6.40;4.60;;;19.40;99.90;;;;;;5040678;28;20878;-53
2021/05/29 10:27:10;;;;;;;7.10;4.90;;;19.80;99.90;;;;;;5040673;28;20480;-53
2021/05/29 10:29:38;;;;;;;4.80;4.00;;;20.20;99.90;;;;;;5040611;28;20463;-53
2021/05/29 10:32:16;;;;;;;13.30;4.97;;;20.10;99.90;;;;;;5045456;28;20490;-53
2021/05/29 10:34:58;;;;;;;6.33;5.70;;;19.90;99.90;;;;;;5043739;28;20544;-53
2021/05/29 10:37:33;;;;;;;6.10;4.80;;;19.50;99.90;;;;;;5050122;28;20491;-53
2021/05/29 10:40:14;;;;;;;5.00;4.23;;;19.90;99.90;;;;;;5044047;28;20466;-54
2021/05/29 10:42:41;;;;;;;6.23;4.60;;;20.20;99.90;;;;;;5053575;28;20451;-53
2021/05/29 10:45:15;;;;;;;7.23;4.80;;;19.60;99.90;;;;;;5053293;28;20996;-53
2021/05/29 10:48:06;;;;;;;7.13;5.83;;;18.80;99.90;;;;;;5055286;28;20458;-53
2021/05/29 10:50:55;;;;;;;5.23;4.73;;;18.30;99.90;;;;;;5053351;28;20454;-53
2021/05/29 10:53:45;;;;;;;5.80;4.10;;;18.60;99.90;;;;;;5045542;28;20450;-53
2021/05/29 10:56:32;;;;;;;7.97;4.17;;;18.50;99.90;;;;;;5049129;28;20476;-52
2021/05/29 10:59:08;;;;;;;5.53;4.57;;;18.80;99.90;;;;;;5052985;28;20479;-53
2021/05/29 11:02:02;;;;;;;4.43;3.97;;;18.90;99.90;;;;;;5053040;28;20943;-53
2021/05/29 11:04:30;;;;;;;4.13;3.57;;;18.70;99.90;;;;;;5052876;28;21212;-53
2021/05/29 11:07:01;;;;;;;4.70;3.43;;;18.40;99.90;;;;;;5052708;28;20472;-53
2021/05/29 11:09:48;;;;;;;4.20;3.80;;;18.50;99.90;;;;;;5053001;28;20444;-52
2021/05/29 11:12:15;;;;;;;4.20;3.80;;;18.20;99.90;;;;;;5052868;28;20440;-53
2021/05/29 11:14:52;;;;;;;6.97;3.50;;;18.40;99.90;;;;;;5052932;28;20443;-52
2021/05/29 11:17:20;;;;;;;6.83;3.70;;;19.20;99.90;;;;;;5052126;28;20468;-53
2021/05/29 11:20:08;;;;;;;6.67;3.80;;;19.70;99.90;;;;;;5052706;28;20451;-53
2021/05/29 11:22:41;;;;;;;3.50;3.17;;;20.00;99.90;;;;;;5046475;28;20475;-53
2021/05/29 11:25:09;;;;;;;3.53;3.23;;;19.80;99.90;;;;;;5051277;28;20459;-53
2021/05/29 11:27:38;;;;;;;3.40;3.10;;;20.30;99.90;;;;;;5052024;28;20517;-53
2021/05/29 11:30:09;;;;;;;4.73;3.60;;;20.70;99.90;;;;;;5052369;28;20526;-53
2021/05/29 11:32:46;;;;;;;4.80;3.33;;;20.50;99.90;;;;;;5049346;28;20612;-53
2021/05/29 11:35:30;;;;;;;3.70;3.40;;;19.90;99.90;;;;;;5053899;28;20439;-52
2021/05/29 11:38:03;;;;;;;3.73;2.80;;;19.90;99.90;;;;;;5052664;28;20857;-53
2021/05/29 11:40:54;;;;;;;2.37;2.23;;;19.90;99.90;;;;;;5055616;28;20933;-52
2021/05/29 11:43:37;;;;;;;3.47;3.10;;;20.30;99.90;;;;;;5054702;28;20880;-53
2021/05/29 11:46:06;;;;;;;3.80;3.00;;;20.00;99.90;;;;;;5049387;28;20475;-53
2021/05/29 11:48:34;;;;;;;4.00;2.77;;;19.30;99.90;;;;;;5054608;28;20440;-53
2021/05/29 11:51:13;;;;;;;2.60;2.40;;;19.30;99.90;;;;;;5055038;28;20884;-53
2021/05/29 11:53:43;;;;;;;2.60;2.40;;;19.40;99.90;;;;;;5053737;28;20463;-53
2021/05/29 11:56:12;;;;;;;2.47;2.30;;;19.30;99.90;;;;;;5055868;28;20483;-53
2021/05/29 11:58:50;;;;;;;9.60;2.53;;;19.40;99.90;;;;;;5054941;28;20475;-53
2021/05/29 12:01:18;;;;;;;2.60;2.13;;;19.40;99.90;;;;;;5053248;28;20510;-53
2021/05/29 12:03:50;;;;;;;2.67;2.47;;;19.90;99.90;;;;;;5055796;28;20456;-53
2021/05/29 12:06:34;;;;;;;3.50;2.70;;;19.90;99.90;;;;;;5053645;28;20471;-52
2021/05/29 12:09:04;;;;;;;2.90;2.60;;;19.60;99.90;;;;;;5053578;28;21009;-53
2021/05/29 12:11:32;;;;;;;2.67;2.47;;;19.90;99.90;;;;;;5054187;28;20450;-53
2021/05/29 12:14:05;;;;;;;3.17;2.87;;;20.10;99.90;;;;;;5046658;28;20463;-54
2021/05/29 12:16:34;;;;;;;2.50;2.30;;;19.80;99.90;;;;;;5037978;28;20563;-53
2021/05/29 12:19:01;;;;;;;2.30;2.10;;;19.40;99.90;;;;;;5033438;28;20542;-53
2021/05/29 12:21:47;;;;;;;2.60;2.13;;;19.50;99.90;;;;;;5052031;28;20474;-53
2021/05/29 12:24:15;;;;;;;3.33;2.57;;;19.40;99.90;;;;;;5052176;28;20466;-53
2021/05/29 12:26:42;;;;;;;2.40;2.00;;;19.30;99.90;;;;;;5052243;28;21001;-53
2021/05/29 12:29:11;;;;;;;1.93;1.83;;;19.00;99.90;;;;;;5048772;28;20946;-53
2021/05/29 12:31:49;;;;;;;1.90;1.80;;;18.90;99.90;;;;;;5050293;28;20452;-53
2021/05/29 12:34:16;;;;;;;3.10;2.40;;;19.10;99.90;;;;;;5051760;28;20452;-53
2021/05/29 12:37:00;;;;;;;5.57;2.20;;;19.40;99.90;;;;;;5052324;28;20471;-53
2021/05/29 12:39:52;;;;;;;2.10;2.00;;;19.60;99.90;;;;;;5051853;28;20487;-53
2021/05/29 12:42:30;;;;;;;2.07;1.87;;;19.90;99.90;;;;;;5032610;28;20453;-53
2021/05/29 12:44:58;;;;;;;2.20;2.00;;;20.20;99.90;;;;;;5044849;28;20450;-53
2021/05/29 12:47:27;;;;;;;2.00;1.90;;;19.90;99.90;;;;;;5050851;28;20476;-53
2021/05/29 12:49:54;;;;;;;2.00;1.90;;;19.80;99.90;;;;;;5051274;28;20509;-53
2021/05/29 12:52:26;;;;;;;2.53;2.33;;;20.10;99.90;;;;;;5051396;28;20463;-53
2021/05/29 12:54:54;;;;;;;3.03;2.83;;;19.70;99.90;;;;;;5043989;28;20444;-53
2021/05/29 12:57:21;;;;;;;2.27;1.73;;;19.60;99.90;;;;;;5051597;28;20484;-53
2021/05/29 12:59:48;;;;;;;2.37;2.17;;;19.70;99.90;;;;;;5051643;28;20452;-54
2021/05/29 13:02:36;;;;;;;2.43;2.23;;;19.90;99.90;;;;;;5051168;28;20491;-53
2021/05/29 13:07:56;;;;;;;1.90;1.80;;;19.80;99.90;;;;;;5051072;28;20556;-52
2021/05/29 13:10:27;;;;;;;2.20;2.10;;;19.60;99.90;;;;;;5049631;28;20531;-53